sensor_id;sensor_type;location;lat;lon;timestamp;noise_LAeq;noise_LA_min;noise_LA_max;noise_LA01;noise_LA95
75037;Laerm;64247;51.540;5.854;2023-05-27T07:59:43;53.04;44.07;82.90;;
75037;Laerm;64247;51.540;5.854;2023-05-27T08:01:44;53.87;45.80;67.69;;
75037;Laerm;64247;51.540;5.854;2023-05-27T08:03:46;51.89;45.40;68.46;;
75037;Laerm;64247;51.540;5.854;2023-05-27T08:06:05;53.91;45.30;65.94;;
75037;Laerm;64247;51.540;5.854;2023-05-27T08:08:24;54.30;44.60;69.21;;
75037;Laerm;64247;51.540;5.854;2023-05-27T08:10:45;53.41;44.13;74.42;;
75037;Laerm;64247;51.540;5.854;2023-05-27T08:13:10;55.05;45.09;68.58;;
75037;Laerm;64247;51.540;5.854;2023-05-27T08:15:21;54.23;45.32;66.75;;
75037;Laerm;64247;51.540;5.854;2023-05-27T08:17:35;51.63;45.44;63.13;;
75037;Laerm;64247;51.540;5.854;2023-05-27T08:19:54;51.10;44.99;64.34;;
75037;Laerm;64247;51.540;5.854;2023-05-27T08:22:16;53.86;45.41;65.17;;
75037;Laerm;64247;51.540;5.854;2023-05-27T08:24:32;54.29;46.19;67.39;;
75037;Laerm;64247;51.540;5.854;2023-05-27T08:26:40;51.51;44.81;66.34;;
75037;Laerm;64247;51.540;5.854;2023-05-27T08:28:55;52.47;45.47;67.47;;
75037;Laerm;64247;51.540;5.854;2023-05-27T08:31:14;53.25;45.25;70.53;;
75037;Laerm;64247;51.540;5.854;2023-05-27T08:33:21;57.11;45.56;71.46;;
75037;Laerm;64247;51.540;5.854;2023-05-27T08:35:22;57.36;45.03;71.51;;
75037;Laerm;64247;51.540;5.854;2023-05-27T08:37:23;56.87;46.78;72.80;;
75037;Laerm;64247;51.540;5.854;2023-05-27T08:39:24;51.86;45.04;63.56;;
75037;Laerm;64247;51.540;5.854;2023-05-27T08:41:39;55.31;46.11;69.45;;
75037;Laerm;64247;51.540;5.854;2023-05-27T08:43:42;56.74;46.90;68.01;;
75037;Laerm;64247;51.540;5.854;2023-05-27T08:45:44;54.15;46.49;64.92;;
75037;Laerm;64247;51.540;5.854;2023-05-27T08:47:46;54.01;45.26;69.57;;
75037;Laerm;64247;51.540;5.854;2023-05-27T08:49:52;57.95;46.69;76.05;;
75037;Laerm;64247;51.540;5.854;2023-05-27T08:51:56;57.20;44.87;73.34;;
75037;Laerm;64247;51.540;5.854;2023-05-27T08:53:58;55.72;45.27;72.71;;
75037;Laerm;64247;51.540;5.854;2023-05-27T08:56:00;52.43;45.73;64.43;;
75037;Laerm;64247;51.540;5.854;2023-05-27T08:58:06;53.40;45.40;69.16;;
75037;Laerm;64247;51.540;5.854;2023-05-27T09:00:13;52.31;44.87;65.53;;
75037;Laerm;64247;51.540;5.854;2023-05-27T09:02:17;53.33;45.18;82.23;;
75037;Laerm;64247;51.540;5.854;2023-05-27T09:04:20;52.56;45.55;67.76;;
75037;Laerm;64247;51.540;5.854;2023-05-27T09:06:21;51.18;43.96;66.73;;
75037;Laerm;64247;51.540;5.854;2023-05-27T09:08:22;53.18;44.54;68.81;;
75037;Laerm;64247;51.540;5.854;2023-05-27T09:10:23;54.76;45.60;69.86;;
75037;Laerm;64247;51.540;5.854;2023-05-27T09:12:26;56.30;45.52;69.26;;
75037;Laerm;64247;51.540;5.854;2023-05-27T09:14:28;54.64;46.25;65.26;;
75037;Laerm;64247;51.540;5.854;2023-05-27T09:16:30;53.99;44.98;67.82;;
75037;Laerm;64247;51.540;5.854;2023-05-27T09:18:35;54.67;45.02;70.12;;
75037;Laerm;64247;51.540;5.854;2023-05-27T09:20:36;56.84;45.01;76.24;;
75037;Laerm;64247;51.540;5.854;2023-05-27T09:22:38;54.81;45.10;68.88;;
75037;Laerm;64247;51.540;5.854;2023-05-27T09:24:41;52.20;45.66;68.01;;
75037;Laerm;64247;51.540;5.854;2023-05-27T09:26:42;53.09;45.53;70.03;;
75037;Laerm;64247;51.540;5.854;2023-05-27T09:28:43;54.39;44.49;71.92;;
75037;Laerm;64247;51.540;5.854;2023-05-27T09:30:45;56.64;45.63;74.81;;
75037;Laerm;64247;51.540;5.854;2023-05-27T09:32:48;54.96;45.77;68.46;;
75037;Laerm;64247;51.540;5.854;2023-05-27T09:34:49;51.75;45.19;67.66;;
75037;Laerm;64247;51.540;5.854;2023-05-27T09:36:51;55.45;44.56;71.58;;
75037;Laerm;64247;51.540;5.854;2023-05-27T09:38:52;53.00;44.70;79.48;;
75037;Laerm;64247;51.540;5.854;2023-05-27T09:40:53;50.00;44.48;63.62;;
75037;Laerm;64247;51.540;5.854;2023-05-27T09:42:54;53.07;44.52;68.13;;
75037;Laerm;64247;51.540;5.854;2023-05-27T09:44:55;54.72;45.02;68.57;;
75037;Laerm;64247;51.540;5.854;2023-05-27T09:46:58;49.72;44.80;59.61;;
75037;Laerm;64247;51.540;5.854;2023-05-27T09:49:02;54.39;45.50;66.61;;
75037;Laerm;64247;51.540;5.854;2023-05-27T09:51:05;54.76;44.91;71.97;;
75037;Laerm;64247;51.540;5.854;2023-05-27T09:53:06;51.78;44.29;69.38;;
75037;Laerm;64247;51.540;5.854;2023-05-27T09:55:10;53.25;44.58;69.63;;
75037;Laerm;64247;51.540;5.854;2023-05-27T09:57:13;57.16;46.53;69.14;;
75037;Laerm;64247;51.540;5.854;2023-05-27T09:59:15;52.70;43.95;67.49;;
75037;Laerm;64247;51.540;5.854;2023-05-27T10:01:17;54.53;45.09;69.29;;
75037;Laerm;64247;51.540;5.854;2023-05-27T10:03:21;52.16;44.29;66.37;;
75037;Laerm;64247;51.540;5.854;2023-05-27T10:05:22;51.62;44.43;62.92;;
75037;Laerm;64247;51.540;5.854;2023-05-27T10:07:23;52.98;44.80;64.93;;
75037;Laerm;64247;51.540;5.854;2023-05-27T10:09:25;52.96;44.19;66.21;;
75037;Laerm;64247;51.540;5.854;2023-05-27T10:11:31;51.30;45.19;66.32;;
75037;Laerm;64247;51.540;5.854;2023-05-27T10:13:33;51.81;45.43;67.49;;
75037;Laerm;64247;51.540;5.854;2023-05-27T10:15:34;54.51;45.56;65.94;;
75037;Laerm;64247;51.540;5.854;2023-05-27T10:17:56;53.14;45.16;64.04;;
75037;Laerm;64247;51.540;5.854;2023-05-27T10:19:58;51.93;44.73;67.08;;
75037;Laerm;64247;51.540;5.854;2023-05-27T10:22:10;56.64;45.31;71.18;;
75037;Laerm;64247;51.540;5.854;2023-05-27T10:24:11;56.45;45.54;68.81;;
75037;Laerm;64247;51.540;5.854;2023-05-27T10:26:12;50.33;44.58;66.07;;
75037;Laerm;64247;51.540;5.854;2023-05-27T10:28:34;49.64;44.16;61.92;;
75037;Laerm;64247;51.540;5.854;2023-05-27T10:30:45;50.64;43.35;63.55;;
75037;Laerm;64247;51.540;5.854;2023-05-27T10:32:50;50.97;44.48;62.70;;
75037;Laerm;64247;51.540;5.854;2023-05-27T10:34:52;53.55;45.46;67.53;;
75037;Laerm;64247;51.540;5.854;2023-05-27T10:37:00;54.46;46.09;65.06;;
75037;Laerm;64247;51.540;5.854;2023-05-27T10:39:19;53.23;45.24;64.30;;
75037;Laerm;64247;51.540;5.854;2023-05-27T10:41:21;52.63;45.96;67.09;;
75037;Laerm;64247;51.540;5.854;2023-05-27T10:43:28;51.32;46.33;61.43;;
75037;Laerm;64247;51.540;5.854;2023-05-27T10:45:34;52.24;45.47;68.17;;
75037;Laerm;64247;51.540;5.854;2023-05-27T10:47:35;52.62;45.06;63.88;;
75037;Laerm;64247;51.540;5.854;2023-05-27T10:49:44;54.17;45.74;66.11;;
75037;Laerm;64247;51.540;5.854;2023-05-27T10:51:48;53.45;45.06;65.61;;
75037;Laerm;64247;51.540;5.854;2023-05-27T10:53:49;51.61;44.61;64.58;;
75037;Laerm;64247;51.540;5.854;2023-05-27T10:55:50;54.86;45.43;67.82;;
75037;Laerm;64247;51.540;5.854;2023-05-27T10:57:52;53.96;44.94;67.39;;
75037;Laerm;64247;51.540;5.854;2023-05-27T10:59:55;53.32;44.17;67.61;;
75037;Laerm;64247;51.540;5.854;2023-05-27T11:02:00;52.92;44.21;69.09;;
75037;Laerm;64247;51.540;5.854;2023-05-27T11:04:06;52.24;44.90;65.97;;
75037;Laerm;64247;51.540;5.854;2023-05-27T11:06:07;51.49;43.85;64.08;;
75037;Laerm;64247;51.540;5.854;2023-05-27T11:08:12;55.27;44.05;73.37;;
75037;Laerm;64247;51.540;5.854;2023-05-27T11:10:14;51.59;44.90;65.56;;
75037;Laerm;64247;51.540;5.854;2023-05-27T11:12:21;57.89;45.16;74.53;;
75037;Laerm;64247;51.540;5.854;2023-05-27T11:14:23;51.24;45.05;67.69;;
75037;Laerm;64247;51.540;5.854;2023-05-27T11:16:24;53.03;44.62;66.77;;
75037;Laerm;64247;51.540;5.854;2023-05-27T11:18:36;50.37;44.61;65.72;;
75037;Laerm;64247;51.540;5.854;2023-05-27T11:20:38;53.74;45.02;69.45;;
75037;Laerm;64247;51.540;5.854;2023-05-27T11:22:39;51.90;45.05;65.76;;
75037;Laerm;64247;51.540;5.854;2023-05-27T11:24:41;49.58;44.10;61.23;;
75037;Laerm;64247;51.540;5.854;2023-05-27T11:26:44;50.19;44.51;58.33;;
75037;Laerm;64247;51.540;5.854;2023-05-27T11:28:57;50.25;44.37;69.06;;
75037;Laerm;64247;51.540;5.854;2023-05-27T11:31:02;51.04;44.95;65.37;;
75037;Laerm;64247;51.540;5.854;2023-05-27T11:33:04;54.10;45.27;68.26;;
75037;Laerm;64247;51.540;5.854;2023-05-27T11:35:12;50.76;43.85;68.42;;
75037;Laerm;64247;51.540;5.854;2023-05-27T11:37:15;50.78;44.47;65.21;;
75037;Laerm;64247;51.540;5.854;2023-05-27T11:39:16;52.63;44.68;67.07;;
75037;Laerm;64247;51.540;5.854;2023-05-27T11:41:20;51.66;45.60;65.60;;
75037;Laerm;64247;51.540;5.854;2023-05-27T11:43:21;50.91;44.57;64.06;;
75037;Laerm;64247;51.540;5.854;2023-05-27T11:45:22;50.97;44.56;61.86;;
75037;Laerm;64247;51.540;5.854;2023-05-27T11:47:23;48.67;44.63;61.18;;
75037;Laerm;64247;51.540;5.854;2023-05-27T11:49:23;51.31;44.71;64.58;;
75037;Laerm;64247;51.540;5.854;2023-05-27T11:51:28;48.82;43.95;59.97;;
75037;Laerm;64247;51.540;5.854;2023-05-27T11:53:30;49.76;44.38;65.68;;
75037;Laerm;64247;51.540;5.854;2023-05-27T11:55:31;50.05;44.32;63.53;;
75037;Laerm;64247;51.540;5.854;2023-05-27T11:57:32;51.61;44.95;65.90;;
75037;Laerm;64247;51.540;5.854;2023-05-27T11:59:34;52.07;43.65;67.36;;
75037;Laerm;64247;51.540;5.854;2023-05-27T12:01:35;51.61;44.70;70.38;;
75037;Laerm;64247;51.540;5.854;2023-05-27T12:03:36;52.04;44.37;63.80;;
75037;Laerm;64247;51.540;5.854;2023-05-27T12:05:37;51.45;44.01;62.87;;
75037;Laerm;64247;51.540;5.854;2023-05-27T12:07:38;50.49;43.96;64.23;;
75037;Laerm;64247;51.540;5.854;2023-05-27T12:09:40;53.93;44.68;67.42;;
75037;Laerm;64247;51.540;5.854;2023-05-27T12:11:41;51.26;44.27;67.36;;
75037;Laerm;64247;51.540;5.854;2023-05-27T12:13:42;48.36;44.44;63.55;;
75037;Laerm;64247;51.540;5.854;2023-05-27T12:15:44;48.06;44.15;60.15;;
75037;Laerm;64247;51.540;5.854;2023-05-27T12:17:44;48.58;44.13;62.11;;
75037;Laerm;64247;51.540;5.854;2023-05-27T12:19:46;49.54;44.80;65.47;;
75037;Laerm;64247;51.540;5.854;2023-05-27T12:21:47;50.25;44.57;62.61;;
75037;Laerm;64247;51.540;5.854;2023-05-27T12:23:48;49.03;44.72;59.41;;
75037;Laerm;64247;51.540;5.854;2023-05-27T12:25:49;50.23;44.80;61.54;;
75037;Laerm;64247;51.540;5.854;2023-05-27T12:27:50;53.81;45.02;68.75;;
75037;Laerm;64247;51.540;5.854;2023-05-27T12:29:51;51.34;44.44;67.44;;
75037;Laerm;64247;51.540;5.854;2023-05-27T12:31:52;52.24;44.48;65.89;;
75037;Laerm;64247;51.540;5.854;2023-05-27T12:33:53;49.57;44.61;61.70;;
75037;Laerm;64247;51.540;5.854;2023-05-27T12:35:54;51.16;44.25;63.77;;
75037;Laerm;64247;51.540;5.854;2023-05-27T12:37:54;50.85;44.72;63.75;;
75037;Laerm;64247;51.540;5.854;2023-05-27T12:39:55;49.98;44.93;67.22;;
75037;Laerm;64247;51.540;5.854;2023-05-27T12:41:56;50.50;44.64;62.07;;
75037;Laerm;64247;51.540;5.854;2023-05-27T12:43:57;50.66;44.37;62.48;;
75037;Laerm;64247;51.540;5.854;2023-05-27T12:45:58;56.34;44.45;68.70;;
75037;Laerm;64247;51.540;5.854;2023-05-27T12:48:00;52.57;44.79;68.17;;
75037;Laerm;64247;51.540;5.854;2023-05-27T12:50:02;50.50;45.06;63.77;;
75037;Laerm;64247;51.540;5.854;2023-05-27T12:52:05;50.44;44.67;66.45;;
75037;Laerm;64247;51.540;5.854;2023-05-27T12:54:06;52.11;44.37;67.87;;
75037;Laerm;64247;51.540;5.854;2023-05-27T12:56:07;49.85;43.65;64.39;;
75037;Laerm;64247;51.540;5.854;2023-05-27T12:58:08;53.97;43.57;70.96;;
75037;Laerm;64247;51.540;5.854;2023-05-27T13:00:09;48.83;44.01;61.24;;
75037;Laerm;64247;51.540;5.854;2023-05-27T13:02:11;51.89;44.60;70.08;;
75037;Laerm;64247;51.540;5.854;2023-05-27T13:04:12;52.86;45.43;67.40;;
75037;Laerm;64247;51.540;5.854;2023-05-27T13:06:13;50.96;44.21;65.11;;
75037;Laerm;64247;51.540;5.854;2023-05-27T13:08:14;50.75;43.69;66.42;;
75037;Laerm;64247;51.540;5.854;2023-05-27T13:10:15;51.08;43.77;61.87;;
75037;Laerm;64247;51.540;5.854;2023-05-27T13:12:18;48.99;43.65;61.40;;
75037;Laerm;64247;51.540;5.854;2023-05-27T13:14:20;49.81;45.10;61.45;;
75037;Laerm;64247;51.540;5.854;2023-05-27T13:16:21;50.42;44.09;62.54;;
75037;Laerm;64247;51.540;5.854;2023-05-27T13:18:22;51.68;44.04;67.81;;
75037;Laerm;64247;51.540;5.854;2023-05-27T13:20:24;50.86;44.75;65.69;;
75037;Laerm;64247;51.540;5.854;2023-05-27T13:22:25;51.39;44.27;63.49;;
75037;Laerm;64247;51.540;5.854;2023-05-27T13:24:26;49.36;44.14;63.00;;
75037;Laerm;64247;51.540;5.854;2023-05-27T13:26:27;50.41;44.56;62.66;;
75037;Laerm;64247;51.540;5.854;2023-05-27T13:28:29;50.72;44.79;63.15;;
75037;Laerm;64247;51.540;5.854;2023-05-27T13:30:30;51.89;45.48;62.99;;
75037;Laerm;64247;51.540;5.854;2023-05-27T13:32:31;50.73;45.14;63.53;;
75037;Laerm;64247;51.540;5.854;2023-05-27T13:34:32;52.00;44.58;63.46;;
75037;Laerm;64247;51.540;5.854;2023-05-27T13:36:33;52.65;44.90;65.94;;
75037;Laerm;64247;51.540;5.854;2023-05-27T13:38:33;49.49;43.96;66.36;;
75037;Laerm;64247;51.540;5.854;2023-05-27T13:40:34;47.00;43.95;56.44;;
75037;Laerm;64247;51.540;5.854;2023-05-27T13:42:36;50.06;44.06;67.80;;
75037;Laerm;64247;51.540;5.854;2023-05-27T13:44:37;48.77;43.98;62.58;;
75037;Laerm;64247;51.540;5.854;2023-05-27T13:46:39;49.94;43.52;66.15;;
75037;Laerm;64247;51.540;5.854;2023-05-27T13:48:40;54.49;44.51;69.76;;
75037;Laerm;64247;51.540;5.854;2023-05-27T13:50:41;52.67;43.65;67.19;;
75037;Laerm;64247;51.540;5.854;2023-05-27T13:52:42;52.90;43.34;70.21;;
75037;Laerm;64247;51.540;5.854;2023-05-27T13:54:44;53.64;44.00;65.33;;
75037;Laerm;64247;51.540;5.854;2023-05-27T13:56:45;56.03;43.98;70.11;;
75037;Laerm;64247;51.540;5.854;2023-05-27T13:58:46;55.28;45.33;73.55;;
75037;Laerm;64247;51.540;5.854;2023-05-27T14:00:47;52.20;44.79;65.22;;
75037;Laerm;64247;51.540;5.854;2023-05-27T14:02:47;51.35;43.40;68.01;;
75037;Laerm;64247;51.540;5.854;2023-05-27T14:04:48;51.40;43.60;66.31;;
75037;Laerm;64247;51.540;5.854;2023-05-27T14:06:49;47.77;43.30;62.30;;
75037;Laerm;64247;51.540;5.854;2023-05-27T14:08:50;48.94;43.80;65.07;;
75037;Laerm;64247;51.540;5.854;2023-05-27T14:10:52;50.58;44.21;68.15;;
75037;Laerm;64247;51.540;5.854;2023-05-27T14:12:54;49.74;43.89;63.08;;
75037;Laerm;64247;51.540;5.854;2023-05-27T14:14:54;47.57;43.62;59.09;;
75037;Laerm;64247;51.540;5.854;2023-05-27T14:16:55;48.74;44.14;63.84;;
75037;Laerm;64247;51.540;5.854;2023-05-27T14:18:57;47.79;43.70;58.97;;
75037;Laerm;64247;51.540;5.854;2023-05-27T14:20:58;49.40;44.14;60.85;;
75037;Laerm;64247;51.540;5.854;2023-05-27T14:22:59;53.04;44.81;65.53;;
75037;Laerm;64247;51.540;5.854;2023-05-27T14:25:03;51.57;44.07;67.01;;
75037;Laerm;64247;51.540;5.854;2023-05-27T14:27:04;50.56;44.25;65.85;;
75037;Laerm;64247;51.540;5.854;2023-05-27T14:29:06;51.03;44.03;65.78;;
75037;Laerm;64247;51.540;5.854;2023-05-27T14:31:07;52.14;44.43;65.65;;
75037;Laerm;64247;51.540;5.854;2023-05-27T14:33:08;52.34;44.29;67.69;;
75037;Laerm;64247;51.540;5.854;2023-05-27T14:35:09;50.21;44.83;64.89;;
75037;Laerm;64247;51.540;5.854;2023-05-27T14:37:10;52.73;43.95;69.67;;
75037;Laerm;64247;51.540;5.854;2023-05-27T14:39:11;47.87;44.20;60.66;;
75037;Laerm;64247;51.540;5.854;2023-05-27T14:41:12;47.43;43.94;56.58;;
75037;Laerm;64247;51.540;5.854;2023-05-27T14:43:13;52.34;44.48;68.01;;
75037;Laerm;64247;51.540;5.854;2023-05-27T14:45:14;55.47;45.49;70.30;;
75037;Laerm;64247;51.540;5.854;2023-05-27T14:47:15;53.32;43.94;69.14;;
75037;Laerm;64247;51.540;5.854;2023-05-27T14:49:15;52.71;44.45;68.25;;
75037;Laerm;64247;51.540;5.854;2023-05-27T14:51:16;54.30;44.72;68.46;;
75037;Laerm;64247;51.540;5.854;2023-05-27T14:53:17;52.05;43.64;65.12;;
75037;Laerm;64247;51.540;5.854;2023-05-27T14:55:18;52.39;44.50;67.52;;
75037;Laerm;64247;51.540;5.854;2023-05-27T14:57:20;52.09;44.44;64.75;;
75037;Laerm;64247;51.540;5.854;2023-05-27T14:59:21;50.56;43.80;65.29;;
75037;Laerm;64247;51.540;5.854;2023-05-27T15:01:22;48.13;43.25;65.04;;
75037;Laerm;64247;51.540;5.854;2023-05-27T15:03:23;49.18;43.74;61.31;;
75037;Laerm;64247;51.540;5.854;2023-05-27T15:05:24;52.54;43.47;66.84;;
75037;Laerm;64247;51.540;5.854;2023-05-27T15:07:25;48.92;44.18;63.06;;
75037;Laerm;64247;51.540;5.854;2023-05-27T15:09:26;49.92;44.14;65.73;;
75037;Laerm;64247;51.540;5.854;2023-05-27T15:11:27;49.10;43.69;62.30;;
75037;Laerm;64247;51.540;5.854;2023-05-27T15:13:28;48.78;44.02;61.85;;
75037;Laerm;64247;51.540;5.854;2023-05-27T15:15:29;48.05;44.21;69.38;;
75037;Laerm;64247;51.540;5.854;2023-05-27T15:17:29;47.62;44.56;60.29;;
75037;Laerm;64247;51.540;5.854;2023-05-27T15:19:31;49.53;44.78;62.32;;
75037;Laerm;64247;51.540;5.854;2023-05-27T15:21:31;51.18;45.26;65.79;;
75037;Laerm;64247;51.540;5.854;2023-05-27T15:23:33;47.78;43.83;62.75;;
75037;Laerm;64247;51.540;5.854;2023-05-27T15:25:35;52.56;44.59;68.74;;
75037;Laerm;64247;51.540;5.854;2023-05-27T15:27:36;51.66;44.16;66.69;;
75037;Laerm;64247;51.540;5.854;2023-05-27T15:29:37;54.21;43.83;66.55;;
75037;Laerm;64247;51.540;5.854;2023-05-27T15:31:38;52.40;45.01;65.41;;
75037;Laerm;64247;51.540;5.854;2023-05-27T15:33:39;50.54;44.14;62.63;;
75037;Laerm;64247;51.540;5.854;2023-05-27T15:35:40;52.24;44.37;65.14;;
75037;Laerm;64247;51.540;5.854;2023-05-27T15:37:41;53.03;43.81;76.59;;
75037;Laerm;64247;51.540;5.854;2023-05-27T15:39:42;51.66;44.01;69.38;;
75037;Laerm;64247;51.540;5.854;2023-05-27T15:41:43;50.63;44.97;62.26;;
75037;Laerm;64247;51.540;5.854;2023-05-27T15:43:44;52.11;43.74;65.05;;
75037;Laerm;64247;51.540;5.854;2023-05-27T15:45:45;55.39;43.50;69.90;;
75037;Laerm;64247;51.540;5.854;2023-05-27T15:47:46;54.87;44.95;67.76;;
75037;Laerm;64247;51.540;5.854;2023-05-27T15:49:49;50.78;45.24;63.18;;
75037;Laerm;64247;51.540;5.854;2023-05-27T15:51:49;59.32;44.37;70.95;;
75037;Laerm;64247;51.540;5.854;2023-05-27T15:53:50;68.28;64.29;76.94;;
75037;Laerm;64247;51.540;5.854;2023-05-27T15:55:51;66.76;58.82;79.50;;
75037;Laerm;64247;51.540;5.854;2023-05-27T15:57:52;55.47;46.68;66.38;;
75037;Laerm;64247;51.540;5.854;2023-05-27T15:59:53;54.61;46.14;70.16;;
75037;Laerm;64247;51.540;5.854;2023-05-27T16:01:54;53.87;46.56;64.50;;
75037;Laerm;64247;51.540;5.854;2023-05-27T16:03:55;59.08;46.90;65.32;;
75037;Laerm;64247;51.540;5.854;2023-05-27T16:05:55;63.15;56.20;69.75;;
75037;Laerm;64247;51.540;5.854;2023-05-27T16:07:56;62.47;56.85;69.60;;
75037;Laerm;64247;51.540;5.854;2023-05-27T16:09:57;63.93;54.81;71.47;;
75037;Laerm;64247;51.540;5.854;2023-05-27T16:14:34;69.26;47.88;85.03;;
75037;Laerm;64247;51.540;5.854;2023-05-27T16:16:34;73.54;62.40;83.75;;
75037;Laerm;64247;51.540;5.854;2023-05-27T16:18:36;75.15;63.33;81.86;;
75037;Laerm;64247;51.540;5.854;2023-05-27T16:20:38;69.20;53.58;80.51;;
75037;Laerm;64247;51.540;5.854;2023-05-27T16:22:39;64.38;53.71;73.78;;
75037;Laerm;64247;51.540;5.854;2023-05-27T16:24:40;61.71;43.65;73.55;;
75037;Laerm;64247;51.540;5.854;2023-05-27T16:26:41;48.70;43.71;67.20;;
75037;Laerm;64247;51.540;5.854;2023-05-27T16:28:43;51.90;43.55;67.04;;
75037;Laerm;64247;51.540;5.854;2023-05-27T16:30:44;52.36;44.49;68.32;;
75037;Laerm;64247;51.540;5.854;2023-05-27T16:32:45;52.16;45.20;66.66;;
75037;Laerm;64247;51.540;5.854;2023-05-27T16:34:46;48.87;44.28;63.37;;
75037;Laerm;64247;51.540;5.854;2023-05-27T16:36:47;49.00;43.34;61.16;;
75037;Laerm;64247;51.540;5.854;2023-05-27T16:38:47;49.61;43.65;62.71;;
75037;Laerm;64247;51.540;5.854;2023-05-27T16:40:48;52.88;43.53;64.71;;
75037;Laerm;64247;51.540;5.854;2023-05-27T16:42:49;54.42;43.94;68.70;;
75037;Laerm;64247;51.540;5.854;2023-05-27T16:44:50;53.90;44.34;65.14;;
75037;Laerm;64247;51.540;5.854;2023-05-27T16:46:51;49.89;44.27;59.95;;
75037;Laerm;64247;51.540;5.854;2023-05-27T16:48:52;52.15;43.65;67.18;;
75037;Laerm;64247;51.540;5.854;2023-05-27T16:50:53;52.82;44.28;71.09;;
75037;Laerm;64247;51.540;5.854;2023-05-27T16:52:54;52.70;44.14;69.55;;
75037;Laerm;64247;51.540;5.854;2023-05-27T16:54:55;51.90;43.43;66.60;;
75037;Laerm;64247;51.540;5.854;2023-05-27T16:56:55;50.35;43.24;63.68;;
75037;Laerm;64247;51.540;5.854;2023-05-27T16:58:56;52.51;43.24;66.40;;
75037;Laerm;64247;51.540;5.854;2023-05-27T17:00:58;54.61;43.22;70.99;;
75037;Laerm;64247;51.540;5.854;2023-05-27T17:02:59;52.93;43.61;69.11;;
75037;Laerm;64247;51.540;5.854;2023-05-27T17:05:01;53.73;43.39;67.68;;
75037;Laerm;64247;51.540;5.854;2023-05-27T17:07:02;51.26;43.53;65.16;;
75037;Laerm;64247;51.540;5.854;2023-05-27T17:09:03;49.96;43.39;64.31;;
75037;Laerm;64247;51.540;5.854;2023-05-27T17:11:04;51.78;43.79;67.74;;
75037;Laerm;64247;51.540;5.854;2023-05-27T17:13:05;52.18;43.74;65.89;;
75037;Laerm;64247;51.540;5.854;2023-05-27T17:15:07;51.29;43.93;62.62;;
75037;Laerm;64247;51.540;5.854;2023-05-27T17:17:08;54.49;43.66;69.24;;
75037;Laerm;64247;51.540;5.854;2023-05-27T17:19:09;55.09;43.83;69.67;;
75037;Laerm;64247;51.540;5.854;2023-05-27T17:21:10;53.11;44.37;69.24;;
75037;Laerm;64247;51.540;5.854;2023-05-27T17:23:11;49.76;44.64;64.37;;
75037;Laerm;64247;51.540;5.854;2023-05-27T17:25:13;52.98;43.79;70.30;;
75037;Laerm;64247;51.540;5.854;2023-05-27T17:27:14;49.65;43.97;64.33;;
75037;Laerm;64247;51.540;5.854;2023-05-27T17:29:15;49.16;43.64;65.11;;
75037;Laerm;64247;51.540;5.854;2023-05-27T17:31:16;51.72;43.60;69.85;;
75037;Laerm;64247;51.540;5.854;2023-05-27T17:33:17;52.41;43.21;67.26;;
75037;Laerm;64247;51.540;5.854;2023-05-27T17:35:19;54.00;43.61;67.96;;
75037;Laerm;64247;51.540;5.854;2023-05-27T17:37:20;50.19;43.68;65.14;;
75037;Laerm;64247;51.540;5.854;2023-05-27T17:39:21;48.92;43.62;65.21;;
75037;Laerm;64247;51.540;5.854;2023-05-27T17:41:22;52.93;44.09;68.30;;
75037;Laerm;64247;51.540;5.854;2023-05-27T17:43:23;49.66;43.88;64.30;;
75037;Laerm;64247;51.540;5.854;2023-05-27T17:45:24;51.11;43.28;65.86;;
75037;Laerm;64247;51.540;5.854;2023-05-27T17:47:25;52.00;43.96;66.01;;
75037;Laerm;64247;51.540;5.854;2023-05-27T17:49:26;53.08;43.68;68.00;;
75037;Laerm;64247;51.540;5.854;2023-05-27T17:51:27;51.73;44.04;66.20;;
75037;Laerm;64247;51.540;5.854;2023-05-27T17:53:28;53.54;44.61;63.62;;
75037;Laerm;64247;51.540;5.854;2023-05-27T17:55:29;53.88;43.90;66.56;;
75037;Laerm;64247;51.540;5.854;2023-05-27T17:57:30;51.67;43.06;75.08;;
75037;Laerm;64247;51.540;5.854;2023-05-27T17:59:31;51.44;44.10;67.29;;
75037;Laerm;64247;51.540;5.854;2023-05-27T18:01:32;51.93;43.78;68.40;;
75037;Laerm;64247;51.540;5.854;2023-05-27T18:03:33;51.50;43.69;68.64;;
75037;Laerm;64247;51.540;5.854;2023-05-27T18:05:34;59.31;44.42;84.87;;
75037;Laerm;64247;51.540;5.854;2023-05-27T18:07:35;60.94;45.44;80.29;;
75037;Laerm;64247;51.540;5.854;2023-05-27T18:09:36;58.27;44.71;86.74;;
75037;Laerm;64247;51.540;5.854;2023-05-27T18:11:38;49.90;45.45;63.03;;
75037;Laerm;64247;51.540;5.854;2023-05-27T18:13:39;50.50;45.26;62.25;;
75037;Laerm;64247;51.540;5.854;2023-05-27T18:15:42;52.48;46.23;65.02;;
75037;Laerm;64247;51.540;5.854;2023-05-27T18:17:43;53.50;46.57;67.96;;
75037;Laerm;64247;51.540;5.854;2023-05-27T18:19:44;53.79;45.42;69.26;;
75037;Laerm;64247;51.540;5.854;2023-05-27T18:21:45;57.02;45.30;83.24;;
75037;Laerm;64247;51.540;5.854;2023-05-27T18:23:46;49.14;44.97;64.26;;
75037;Laerm;64247;51.540;5.854;2023-05-27T18:25:47;52.60;45.20;70.06;;
75037;Laerm;64247;51.540;5.854;2023-05-27T18:27:48;54.55;44.46;77.58;;
75037;Laerm;64247;51.540;5.854;2023-05-27T18:29:48;50.78;44.08;69.71;;
75037;Laerm;64247;51.540;5.854;2023-05-27T18:31:49;57.78;44.85;75.57;;
75037;Laerm;64247;51.540;5.854;2023-05-27T18:33:50;61.69;44.72;77.94;;
75037;Laerm;64247;51.540;5.854;2023-05-27T18:35:51;58.31;45.51;76.84;;
75037;Laerm;64247;51.540;5.854;2023-05-27T18:37:53;53.48;45.29;74.50;;
75037;Laerm;64247;51.540;5.854;2023-05-27T18:39:53;49.18;44.39;61.91;;
75037;Laerm;64247;51.540;5.854;2023-05-27T18:41:54;51.60;45.51;64.56;;
75037;Laerm;64247;51.540;5.854;2023-05-27T18:43:55;51.48;46.22;66.82;;
75037;Laerm;64247;51.540;5.854;2023-05-27T18:45:57;52.39;46.19;63.11;;
75037;Laerm;64247;51.540;5.854;2023-05-27T18:47:59;51.71;45.61;63.29;;
75037;Laerm;64247;51.540;5.854;2023-05-27T18:50:00;51.62;45.24;66.24;;
75037;Laerm;64247;51.540;5.854;2023-05-27T18:52:01;49.74;45.13;65.21;;
75037;Laerm;64247;51.540;5.854;2023-05-27T18:54:02;57.46;45.64;73.44;;
75037;Laerm;64247;51.540;5.854;2023-05-27T18:56:03;53.26;44.80;71.79;;
75037;Laerm;64247;51.540;5.854;2023-05-27T18:58:03;51.59;45.20;67.04;;
75037;Laerm;64247;51.540;5.854;2023-05-27T19:00:05;48.37;44.14;66.36;;
75037;Laerm;64247;51.540;5.854;2023-05-27T19:02:07;51.71;44.31;66.93;;
75037;Laerm;64247;51.540;5.854;2023-05-27T19:04:08;53.47;44.01;68.08;;
75037;Laerm;64247;51.540;5.854;2023-05-27T19:06:10;53.90;44.60;71.49;;
75037;Laerm;64247;51.540;5.854;2023-05-27T19:08:10;55.70;44.74;72.98;;
75037;Laerm;64247;51.540;5.854;2023-05-27T19:10:11;55.79;45.05;67.47;;
75037;Laerm;64247;51.540;5.854;2023-05-27T19:12:12;53.61;44.77;68.05;;
75037;Laerm;64247;51.540;5.854;2023-05-27T19:14:13;53.84;45.49;68.69;;
75037;Laerm;64247;51.540;5.854;2023-05-27T19:16:15;47.60;45.02;54.79;;
75037;Laerm;64247;51.540;5.854;2023-05-27T19:18:16;51.38;46.15;67.11;;
75037;Laerm;64247;51.540;5.854;2023-05-27T19:20:17;52.09;44.98;66.84;;
75037;Laerm;64247;51.540;5.854;2023-05-27T19:22:18;51.19;45.29;64.38;;
75037;Laerm;64247;51.540;5.854;2023-05-27T19:24:20;50.94;45.97;62.26;;
75037;Laerm;64247;51.540;5.854;2023-05-27T19:26:23;51.15;46.26;63.26;;